Time;durP1;ratioP1;P1;durP2;ratioP2;P2;SDS_P1;SDS_P2;PMS_P1;PMS_P2;Temp;Humidity;BMP_temperature;BMP_pressure;BME280_temperature;BME280_humidity;BME280_pressure;Samples;Min_cycle;Max_cycle;Signal;HPM_P1;HPM_P2
2021/07/16 00:01:27;;;;;;;10.50;3.63;;;;;;;17.86;71.19;97076.47;5013359;28;20037;-62
2021/07/16 00:03:53;;;;;;;8.70;3.40;;;;;;;17.71;72.19;97079.06;5013959;28;20052;-62
2021/07/16 00:06:18;;;;;;;6.72;3.30;;;;;;;17.63;72.66;97081.81;5012791;28;20029;-62
2021/07/16 00:08:44;;;;;;;7.38;3.30;;;;;;;17.59;72.90;97080.47;5013928;28;20048;-62
2021/07/16 00:11:09;;;;;;;8.07;3.20;;;;;;;17.51;72.68;97079.47;5013863;28;20109;-61
2021/07/16 00:13:35;;;;;;;6.45;3.30;;;;;;;17.62;72.23;97088.28;5014168;28;20040;-62
2021/07/16 00:16:00;;;;;;;9.77;3.60;;;;;;;17.35;73.76;97084.94;5012213;28;20037;-62
2021/07/16 00:18:25;;;;;;;7.00;3.50;;;;;;;17.44;73.49;97081.19;5013868;28;20100;-62
2021/07/16 00:20:51;;;;;;;7.55;3.30;;;;;;;17.26;74.29;97084.09;5013485;28;20054;-62
2021/07/16 00:23:16;;;;;;;7.70;3.35;;;;;;;17.17;74.50;97080.56;5013434;28;20026;-62
2021/07/16 00:25:42;;;;;;;8.55;3.80;;;;;;;17.16;74.87;97081.56;5014037;28;20119;-62
2021/07/16 00:28:08;;;;;;;8.48;3.50;;;;;;;17.19;74.24;97081.22;5014385;28;20029;-62
2021/07/16 00:30:34;;;;;;;9.90;3.35;;;;;;;17.19;74.00;97085.81;5013107;28;20033;-62
2021/07/16 00:32:59;;;;;;;6.00;3.20;;;;;;;17.13;74.54;97089.19;5013798;28;20550;-62
2021/07/16 00:35:25;;;;;;;6.13;3.20;;;;;;;17.00;74.82;97085.13;5013230;28;20105;-62
2021/07/16 00:37:50;;;;;;;6.10;3.05;;;;;;;16.89;74.74;97080.91;5014218;28;20022;-62
2021/07/16 00:40:16;;;;;;;7.32;3.13;;;;;;;17.02;75.02;97082.25;5012375;28;20026;-62
2021/07/16 00:42:42;;;;;;;7.28;2.85;;;;;;;17.09;73.88;97082.41;5013025;28;20026;-62
2021/07/16 00:45:10;;;;;;;8.02;3.30;;;;;;;17.04;73.85;97080.22;5044533;28;20022;-63
2021/07/16 00:47:36;;;;;;;7.30;3.20;;;;;;;16.93;74.02;97075.97;5012360;28;20050;-62
2021/07/16 00:50:04;;;;;;;5.80;2.90;;;;;;;17.06;73.32;97075.44;5013783;28;20060;-62
2021/07/16 00:52:29;;;;;;;5.22;2.97;;;;;;;17.16;72.17;97076.13;5013189;28;20054;-62
2021/07/16 00:54:54;;;;;;;4.28;2.63;;;;;;;17.12;71.94;97076.66;5045079;28;20057;-63
2021/07/16 00:57:20;;;;;;;7.97;2.92;;;;;;;17.29;70.99;97077.47;5012692;28;20050;-62
2021/07/16 00:59:45;;;;;;;6.80;2.50;;;;;;;17.19;71.32;97067.63;5045234;28;20052;-62
2021/07/16 01:02:12;;;;;;;5.82;2.72;;;;;;;17.19;71.20;97070.34;5044887;28;20102;-62
2021/07/16 01:04:37;;;;;;;5.50;2.60;;;;;;;17.33;71.12;97068.81;5013684;28;20032;-62
2021/07/16 01:07:04;;;;;;;6.63;2.65;;;;;;;17.29;70.51;97072.91;5013167;28;20101;-62
2021/07/16 01:09:29;;;;;;;5.40;2.60;;;;;;;17.24;70.93;97069.84;5012235;28;20398;-62
2021/07/16 01:11:55;;;;;;;6.43;2.60;;;;;;;17.19;71.06;97070.34;5013126;28;20074;-62
2021/07/16 01:14:21;;;;;;;5.60;2.55;;;;;;;17.11;71.86;97069.53;5044323;28;20033;-62
2021/07/16 01:16:46;;;;;;;5.95;2.72;;;;;;;17.16;71.70;97070.69;5013028;28;20022;-62
2021/07/16 01:19:16;;;;;;;3.85;2.33;;;;;;;17.22;70.58;97072.72;5012973;28;20363;-62
2021/07/16 01:21:42;;;;;;;6.18;2.50;;;;;;;17.35;69.94;97068.63;5044785;28;20132;-62
2021/07/16 01:24:08;;;;;;;4.25;2.53;;;;;;;17.21;71.22;97071.03;5012921;28;20061;-62
2021/07/16 01:26:36;;;;;;;5.88;2.50;;;;;;;17.03;71.94;97067.66;5045054;28;20065;-62
2021/07/16 01:29:03;;;;;;;5.93;2.40;;;;;;;17.14;71.25;97071.88;5044276;28;20482;-62
2021/07/16 01:31:30;;;;;;;5.35;2.40;;;;;;;17.18;70.50;97071.38;5011067;28;20037;-62
2021/07/16 01:33:55;;;;;;;5.60;2.40;;;;;;;17.18;70.32;97071.38;5044280;28;20018;-62
2021/07/16 01:36:21;;;;;;;7.05;2.80;;;;;;;17.01;71.56;97078.69;5011605;28;20513;-62
2021/07/16 01:38:46;;;;;;;6.15;2.88;;;;;;;17.01;72.03;97070.53;5012802;28;20670;-62
2021/07/16 01:41:11;;;;;;;5.10;2.80;;;;;;;17.05;71.64;97065.63;5012593;28;20030;-62
2021/07/16 01:43:37;;;;;;;7.38;2.70;;;;;;;17.00;72.54;97066.13;5012884;28;20397;-62
2021/07/16 01:46:02;;;;;;;8.75;3.10;;;;;;;16.97;71.98;97062.88;5012885;28;20022;-62
2021/07/16 01:48:30;;;;;;;5.72;2.90;;;;;;;16.98;73.41;97060.03;5012843;28;20030;-62
2021/07/16 01:50:55;;;;;;;6.70;3.20;;;;;;;17.13;72.57;97048.44;5012751;28;20036;-62
2021/07/16 01:53:21;;;;;;;9.63;3.00;;;;;;;17.34;71.67;97051.47;5013474;28;20033;-62
2021/07/16 01:55:47;;;;;;;7.75;3.17;;;;;;;17.43;71.40;97057.72;5016435;28;20072;-62
2021/07/16 01:58:14;;;;;;;8.25;3.30;;;;;;;17.41;71.94;97054.34;5016915;28;20076;-62
2021/07/16 02:00:42;;;;;;;10.30;3.58;;;;;;;17.46;71.42;97053.81;5016794;28;20106;-62
2021/07/16 02:03:09;;;;;;;9.00;3.40;;;;;;;17.45;71.54;97052.13;5016442;28;20030;-62
2021/07/16 02:05:37;;;;;;;9.95;3.47;;;;;;;17.49;71.71;97057.03;5015040;28;20041;-62
2021/07/16 02:08:15;;;;;;;9.38;3.58;;;;;;;17.53;71.11;97049.38;5048479;28;20490;-62
2021/07/16 02:10:45;;;;;;;8.50;3.42;;;;;;;17.51;71.92;97043.28;5016427;28;20442;-62
2021/07/16 02:13:11;;;;;;;10.35;3.92;;;;;;;17.53;71.68;97042.06;5015994;28;20471;-62
2021/07/16 02:15:40;;;;;;;11.75;3.60;;;;;;;17.58;71.46;97041.53;5016191;28;20082;-63
2021/07/16 02:18:06;;;;;;;8.52;3.92;;;;;;;17.59;71.59;97043.25;5016610;28;20488;-62
2021/07/16 02:20:37;;;;;;;8.48;3.53;;;;;;;17.48;72.11;97038.19;5048042;28;20022;-62
2021/07/16 02:23:07;;;;;;;9.02;3.50;;;;;;;17.49;71.93;97029.84;5015549;28;20390;-62
2021/07/16 02:25:32;;;;;;;7.70;3.45;;;;;;;17.44;72.92;97045.84;5016468;28;20113;-62
2021/07/16 02:28:00;;;;;;;9.57;3.50;;;;;;;17.32;73.11;97039.91;5048299;28;20097;-62
2021/07/16 02:30:27;;;;;;;9.88;3.40;;;;;;;17.17;74.31;97042.50;5016406;28;20076;-62
2021/07/16 02:32:54;;;;;;;13.25;3.47;;;;;;;17.11;74.58;97045.06;5016030;28;20026;-62
2021/07/16 02:35:20;;;;;;;9.25;3.17;;;;;;;17.06;74.76;97045.56;5014840;28;20398;-62
2021/07/16 02:37:45;;;;;;;9.93;3.30;;;;;;;17.10;73.85;97037.94;5016403;28;20109;-62
2021/07/16 02:40:14;;;;;;;8.43;3.38;;;;;;;17.12;74.11;97041.34;5048392;28;20110;-62
2021/07/16 02:42:39;;;;;;;11.63;3.90;;;;;;;17.19;73.45;97045.03;5016301;28;20030;-62
2021/07/16 02:45:07;;;;;;;11.55;3.65;;;;;;;16.96;75.24;97048.47;5015574;28;20018;-62
2021/07/16 02:47:33;;;;;;;7.97;3.67;;;;;;;16.99;75.19;97047.28;5016218;28;20026;-62
2021/07/16 02:49:59;;;;;;;10.77;3.70;;;;;;;16.79;75.73;97050.31;5016020;28;20056;-62
2021/07/16 02:52:24;;;;;;;7.90;3.63;;;;;;;16.83;75.40;97048.94;5014681;28;20029;-62
2021/07/16 02:54:50;;;;;;;9.95;3.45;;;;;;;16.71;76.12;97043.00;5015561;28;20382;-62
2021/07/16 02:57:15;;;;;;;7.90;3.20;;;;;;;16.66;76.51;97039.97;5014637;28;20097;-64
2021/07/16 02:59:41;;;;;;;6.90;3.45;;;;;;;16.72;76.39;97033.84;5014559;28;20079;-62
2021/07/16 03:02:08;;;;;;;9.65;4.00;;;;;;;17.11;73.78;97035.03;5015881;28;20026;-62
2021/07/16 03:04:33;;;;;;;8.25;3.65;;;;;;;17.44;72.20;97029.53;5013330;28;20029;-63
2021/07/16 03:06:58;;;;;;;5.90;3.40;;;;;;;17.34;73.50;97035.19;5015405;28;20022;-63
2021/07/16 03:09:24;;;;;;;8.18;3.47;;;;;;;17.01;74.69;97028.91;5015613;28;20026;-62
2021/07/16 03:11:49;;;;;;;7.10;3.53;;;;;;;16.92;75.01;97032.69;5015684;28;20494;-62
2021/07/16 03:14:15;;;;;;;8.52;3.47;;;;;;;16.86;75.67;97037.75;5015234;28;20360;-62
2021/07/16 03:16:40;;;;;;;9.60;3.67;;;;;;;16.82;75.68;97028.25;5015874;28;20505;-62
2021/07/16 03:19:05;;;;;;;9.70;3.40;;;;;;;16.98;74.75;97035.56;5015474;28;20474;-62
2021/07/16 03:21:31;;;;;;;8.18;3.45;;;;;;;17.12;73.90;97033.19;5015277;28;20386;-62
2021/07/16 03:23:57;;;;;;;12.05;3.75;;;;;;;17.12;73.97;97034.03;5014196;28;20393;-62
2021/07/16 03:26:22;;;;;;;7.05;3.33;;;;;;;17.12;74.31;97031.31;5014214;28;20026;-62
2021/07/16 03:28:48;;;;;;;8.88;3.78;;;;;;;17.10;73.69;97030.59;5015339;28;20025;-62
2021/07/16 03:31:13;;;;;;;7.43;3.40;;;;;;;17.05;74.33;97031.13;5015137;28;20030;-62
2021/07/16 03:33:38;;;;;;;6.55;3.13;;;;;;;17.05;74.32;97028.41;5014796;28;20429;-62
2021/07/16 03:36:06;;;;;;;9.93;3.40;;;;;;;17.10;73.75;97036.03;5015306;28;20065;-62
2021/07/16 03:38:32;;;;;;;8.48;3.33;;;;;;;17.09;73.64;97039.81;5015178;28;20038;-62
2021/07/16 03:41:00;;;;;;;9.20;3.35;;;;;;;17.20;72.97;97033.16;5013868;28;20406;-62
2021/07/16 03:43:25;;;;;;;10.00;3.63;;;;;;;17.19;72.79;97037.72;5014823;28;20034;-62
2021/07/16 03:45:52;;;;;;;11.20;4.13;;;;;;;17.26;72.56;97040.59;5015219;28;20036;-62
2021/07/16 03:48:18;;;;;;;9.00;3.53;;;;;;;17.37;72.03;97044.81;5014022;28;20037;-62
2021/07/16 03:50:43;;;;;;;10.93;3.60;;;;;;;17.57;71.29;97029.81;5015004;28;20087;-62
2021/07/16 03:53:08;;;;;;;8.77;3.50;;;;;;;17.61;70.80;97038.50;5014518;28;20511;-62
2021/07/16 03:55:34;;;;;;;8.40;3.50;;;;;;;17.62;70.79;97037.44;5013514;28;20030;-63
2021/07/16 03:57:59;;;;;;;9.27;3.60;;;;;;;17.51;71.33;97030.50;5014679;28;20046;-63
2021/07/16 04:00:29;;;;;;;9.18;3.70;;;;;;;17.47;71.20;97031.88;5014661;28;20044;-63
2021/07/16 04:02:56;;;;;;;7.80;3.60;;;;;;;17.32;73.10;97033.66;5013493;28;20076;-63
2021/07/16 04:05:22;;;;;;;7.57;3.28;;;;;;;17.28;73.13;97043.19;5013371;28;20121;-62
2021/07/16 04:07:50;;;;;;;10.60;3.30;;;;;;;17.16;73.46;97040.81;5013472;28;20534;-63
2021/07/16 04:10:17;;;;;;;11.68;3.45;;;;;;;17.43;72.06;97046.84;5014674;28;20026;-63
2021/07/16 04:12:49;;;;;;;7.82;3.22;;;;;;;17.73;70.50;97038.94;5013311;28;20421;-63
2021/07/16 04:15:14;;;;;;;9.15;3.80;;;;;;;17.64;71.24;97042.72;5013763;28;20037;-63
2021/07/16 04:17:40;;;;;;;8.50;3.53;;;;;;;17.28;73.36;97045.91;5013166;28;20026;-63
2021/07/16 04:20:06;;;;;;;13.10;3.78;;;;;;;17.12;74.51;97049.47;5014542;28;20104;-62
2021/07/16 04:22:31;;;;;;;8.23;3.55;;;;;;;16.98;74.72;97049.16;5014463;28;20034;-62
2021/07/16 04:24:57;;;;;;;8.45;3.45;;;;;;;17.06;74.48;97049.16;5014519;28;20109;-62
2021/07/16 04:27:22;;;;;;;8.35;3.50;;;;;;;16.98;75.22;97057.31;5012962;28;20112;-62
2021/07/16 04:29:48;;;;;;;8.70;3.75;;;;;;;17.06;74.38;97060.00;5013806;28;20030;-62
2021/07/16 04:32:14;;;;;;;8.02;3.50;;;;;;;16.98;75.00;97053.72;5012606;28;20085;-62
2021/07/16 04:34:40;;;;;;;8.00;3.83;;;;;;;16.89;75.11;97051.03;5012803;28;20041;-62
2021/07/16 04:37:07;;;;;;;9.20;3.65;;;;;;;16.98;75.79;97054.59;5013216;28;20030;-62
2021/07/16 04:39:33;;;;;;;9.55;3.63;;;;;;;17.04;74.60;97051.19;5014172;28;20088;-62
2021/07/16 04:41:58;;;;;;;7.72;3.45;;;;;;;17.07;74.77;97053.53;5012695;28;20030;-62
2021/07/16 04:44:24;;;;;;;10.02;3.75;;;;;;;17.16;74.36;97050.84;4996347;28;20033;-62
2021/07/16 04:46:50;;;;;;;7.80;3.60;;;;;;;17.19;73.95;97050.47;5014176;28;20033;-62
2021/07/16 04:49:16;;;;;;;10.15;3.83;;;;;;;17.17;74.59;97058.81;5012967;28;20065;-62
2021/07/16 04:51:41;;;;;;;9.23;3.72;;;;;;;17.09;74.96;97058.81;5013692;28;20037;-62
2021/07/16 04:54:07;;;;;;;8.27;3.92;;;;;;;16.99;76.13;97058.97;5012129;28;20029;-62
2021/07/16 04:56:33;;;;;;;7.78;3.63;;;;;;;16.86;77.00;97050.47;5012546;28;20076;-62
2021/07/16 04:58:59;;;;;;;11.05;3.67;;;;;;;16.89;76.32;97059.16;5014015;28;20064;-62
2021/07/16 05:01:26;;;;;;;12.45;3.70;;;;;;;16.92;75.50;97059.88;5010066;28;20046;-62
2021/07/16 05:03:52;;;;;;;9.95;3.90;;;;;;;16.92;76.49;97062.56;5011325;28;20394;-62
2021/07/16 05:06:18;;;;;;;6.57;3.40;;;;;;;17.01;75.29;97064.25;5044314;28;20426;-62
2021/07/16 05:08:44;;;;;;;9.70;3.85;;;;;;;17.03;76.39;97059.50;5013309;28;20026;-61
2021/07/16 05:11:10;;;;;;;8.18;4.00;;;;;;;16.99;76.53;97069.84;5011780;28;20026;-62
2021/07/16 05:13:36;;;;;;;10.77;3.75;;;;;;;17.06;76.60;97059.16;5011643;28;20145;-61
2021/07/16 05:16:03;;;;;;;9.05;3.70;;;;;;;16.93;76.78;97056.09;5012555;28;20022;-62
2021/07/16 05:18:29;;;;;;;9.40;3.47;;;;;;;16.98;76.21;97053.72;5011710;28;20064;-62
2021/07/16 05:20:54;;;;;;;9.25;3.70;;;;;;;17.05;75.88;97058.31;5011409;28;20490;-62
2021/07/16 05:23:19;;;;;;;8.43;3.58;;;;;;;17.23;74.48;97052.66;5012334;28;20030;-61
2021/07/16 05:25:45;;;;;;;8.98;3.60;;;;;;;17.29;73.81;97064.75;5012560;28;20062;-62
2021/07/16 05:28:10;;;;;;;7.68;3.58;;;;;;;17.39;73.23;97064.53;5011671;28;20470;-62
2021/07/16 05:30:36;;;;;;;7.45;3.72;;;;;;;17.47;72.79;97063.69;5011241;28;20018;-63
2021/07/16 05:33:01;;;;;;;11.65;4.18;;;;;;;17.51;72.68;97065.03;5012107;28;20025;-63
2021/07/16 05:35:26;;;;;;;8.48;3.60;;;;;;;17.60;72.93;97058.53;5012430;28;20441;-63
2021/07/16 05:37:52;;;;;;;10.30;3.72;;;;;;;17.49;73.94;97062.47;4994408;28;20025;-62
2021/07/16 05:40:18;;;;;;;7.72;3.55;;;;;;;17.62;72.65;97061.09;5012379;28;20028;-62
2021/07/16 05:42:43;;;;;;;5.65;3.28;;;;;;;17.61;72.63;97068.41;4993478;28;20018;-63
2021/07/16 05:45:09;;;;;;;10.10;3.50;;;;;;;17.68;73.51;97066.66;5012675;28;20018;-63
2021/07/16 05:47:34;;;;;;;9.18;3.50;;;;;;;17.76;72.96;97059.50;5007073;28;20641;-62
2021/07/16 05:50:00;;;;;;;12.05;3.92;;;;;;;17.97;72.86;97067.09;5010755;28;20022;-62
2021/07/16 05:52:26;;;;;;;8.18;3.67;;;;;;;18.09;72.99;97059.38;5011685;28;20022;-62
2021/07/16 05:54:52;;;;;;;8.43;3.55;;;;;;;18.09;73.14;97059.38;5010940;28;20022;-61
2021/07/16 05:57:18;;;;;;;7.72;3.70;;;;;;;18.05;72.99;97059.75;5011973;28;20049;-62
2021/07/16 05:59:43;;;;;;;7.20;3.50;;;;;;;18.19;72.81;97055.41;4994361;28;20048;-62
2021/07/16 06:02:09;;;;;;;7.15;3.40;;;;;;;18.39;72.04;97060.41;5011926;28;20034;-62
2021/07/16 06:04:35;;;;;;;8.02;3.05;;;;;;;18.55;71.04;97062.19;5011560;28;20064;-62
2021/07/16 06:07:00;;;;;;;6.57;3.10;;;;;;;18.47;71.88;97064.97;5010524;28;20070;-62
2021/07/16 06:09:26;;;;;;;8.65;3.55;;;;;;;18.58;71.95;97062.66;5011428;28;20087;-63
2021/07/16 06:11:51;;;;;;;12.63;3.60;;;;;;;18.80;71.16;97067.44;5010314;28;20030;-62
2021/07/16 06:14:18;;;;;;;8.05;3.17;;;;;;;18.93;71.08;97064.13;5014061;28;20038;-62
2021/07/16 06:16:44;;;;;;;7.97;3.50;;;;;;;18.95;71.53;97070.22;5015776;28;20111;-62
2021/07/16 06:19:09;;;;;;;6.72;3.15;;;;;;;18.57;72.61;97074.59;5011157;28;20057;-62
2021/07/16 06:21:35;;;;;;;6.00;3.55;;;;;;;18.31;73.00;97074.09;5010329;28;20026;-63
2021/07/16 06:24:00;;;;;;;9.15;3.33;;;;;;;18.24;73.35;97082.94;5010397;28;20025;-62
2021/07/16 06:26:26;;;;;;;7.05;3.38;;;;;;;18.22;73.47;97085.00;5009018;28;20496;-63
2021/07/16 06:28:51;;;;;;;7.03;3.60;;;;;;;18.23;74.24;97085.84;5008774;28;20064;-63
2021/07/16 06:31:16;;;;;;;5.63;3.20;;;;;;;18.36;73.16;97090.72;5008365;28;20025;-64
2021/07/16 06:33:42;;;;;;;6.22;3.50;;;;;;;18.56;72.33;97089.22;5009462;28;20112;-63
2021/07/16 06:36:07;;;;;;;6.82;3.40;;;;;;;18.59;71.98;97096.19;5008601;28;20034;-62
2021/07/16 06:38:33;;;;;;;6.85;3.08;;;;;;;18.69;71.50;97095.94;5011004;28;20054;-62
2021/07/16 06:40:58;;;;;;;7.55;3.13;;;;;;;18.99;71.22;97096.97;5013407;28;20028;-62
2021/07/16 06:43:24;;;;;;;5.78;2.95;;;;;;;19.10;70.62;97103.84;5013469;28;20111;-63
2021/07/16 06:45:49;;;;;;;7.15;2.97;;;;;;;19.05;70.64;97106.28;5011945;28;20022;-62
2021/07/16 06:48:14;;;;;;;5.90;2.90;;;;;;;19.09;69.98;97104.88;5012742;28;20456;-61
2021/07/16 06:50:40;;;;;;;7.47;3.00;;;;;;;19.18;70.14;97101.03;5012350;28;20030;-62
2021/07/16 06:53:05;;;;;;;5.55;3.05;;;;;;;19.10;70.39;97106.56;5013762;28;20026;-62
2021/07/16 06:55:31;;;;;;;5.30;3.03;;;;;;;19.30;70.26;97106.91;5012521;28;20073;-63
2021/07/16 06:57:56;;;;;;;6.63;3.10;;;;;;;19.30;70.21;97103.34;5012588;28;20077;-62
2021/07/16 07:00:21;;;;;;;8.05;3.22;;;;;;;19.32;69.75;97110.31;5015670;28;20398;-62
2021/07/16 07:02:47;;;;;;;6.72;3.40;;;;;;;19.32;69.93;97109.44;5011265;28;20025;-62
2021/07/16 07:05:12;;;;;;;8.80;3.60;;;;;;;19.55;69.14;97112.13;5011327;28;20026;-62
2021/07/16 07:07:38;;;;;;;8.63;3.50;;;;;;;19.76;68.89;97116.84;5014375;28;20075;-63
2021/07/16 07:10:03;;;;;;;8.20;3.60;;;;;;;19.87;68.93;97121.03;5043845;28;20099;-62
2021/07/16 07:12:29;;;;;;;9.25;3.50;;;;;;;19.75;68.39;97117.91;5012840;28;20460;-62
2021/07/16 07:14:54;;;;;;;7.28;3.58;;;;;;;19.54;67.68;97121.34;5011661;28;20531;-62
2021/07/16 07:17:20;;;;;;;7.60;3.40;;;;;;;19.55;67.68;97121.16;5014445;28;20026;-61
2021/07/16 07:19:46;;;;;;;6.75;3.50;;;;;;;19.59;67.64;97118.91;4995529;28;20518;-62
2021/07/16 07:22:11;;;;;;;8.80;3.20;;;;;;;19.62;68.73;97125.88;5011455;28;20034;-62
2021/07/16 07:24:37;;;;;;;7.40;3.08;;;;;;;19.90;68.32;97126.13;5010646;28;20045;-62
2021/07/16 07:27:03;;;;;;;6.95;3.30;;;;;;;19.82;67.59;97121.59;5010215;28;20386;-62
2021/07/16 07:29:31;;;;;;;8.98;3.30;;;;;;;19.80;64.96;97129.09;5015068;28;20029;-63
2021/07/16 07:31:56;;;;;;;8.80;3.53;;;;;;;19.67;65.23;97127.00;5023943;28;20433;-61
2021/07/16 07:34:22;;;;;;;9.35;3.65;;;;;;;19.66;64.53;97127.19;5024597;28;20029;-61
2021/07/16 07:36:49;;;;;;;9.68;3.60;;;;;;;19.95;64.86;97131.00;5029768;28;20104;-61
2021/07/16 07:39:15;;;;;;;7.38;3.95;;;;;;;19.94;65.60;97129.31;5015644;28;20026;-61
2021/07/16 07:41:45;;;;;;;7.85;4.13;;;;;;;19.98;64.52;97131.47;5008344;28;20053;-61
2021/07/16 07:44:13;;;;;;;9.93;4.22;;;;;;;20.20;64.75;97118.78;5010092;28;20109;-61
2021/07/16 07:46:39;;;;;;;10.98;4.25;;;;;;;20.09;65.25;97135.63;5008548;28;20674;-61
2021/07/16 07:49:06;;;;;;;12.02;4.10;;;;;;;20.60;63.54;97134.78;5015076;28;20030;-61
2021/07/16 07:51:33;;;;;;;10.32;4.20;;;;;;;20.63;62.83;97130.81;5029045;28;20026;-60
2021/07/16 07:53:58;;;;;;;11.40;4.18;;;;;;;20.66;63.41;97112.16;5027338;28;20760;-61
2021/07/16 07:56:25;;;;;;;10.55;3.90;;;;;;;21.29;61.69;97119.75;5027335;28;20156;-61
2021/07/16 07:58:51;;;;;;;6.60;3.75;;;;;;;21.63;60.04;97120.03;5028254;28;20022;-61
2021/07/16 08:01:16;;;;;;;7.75;3.90;;;;;;;21.53;60.37;97123.97;5025773;28;20393;-61
2021/07/16 08:03:43;;;;;;;10.05;4.25;;;;;;;21.69;59.73;97119.25;5028613;28;20426;-61
2021/07/16 08:06:08;;;;;;;12.65;4.40;;;;;;;21.62;59.95;97111.00;5010576;28;20029;-61
2021/07/16 08:08:34;;;;;;;9.93;4.22;;;;;;;21.49;60.26;97108.13;5009599;28;20025;-62
2021/07/16 08:10:59;;;;;;;9.02;4.30;;;;;;;21.20;61.54;97113.56;5010134;28;20026;-62
2021/07/16 08:13:24;;;;;;;9.45;4.20;;;;;;;21.65;60.28;97104.28;5009624;28;20028;-62
2021/07/16 08:15:50;;;;;;;10.32;4.20;;;;;;;21.39;61.73;97116.66;5009643;28;20084;-61
2021/07/16 08:18:15;;;;;;;7.55;3.88;;;;;;;20.96;63.08;97113.97;5008326;28;20026;-62
2021/07/16 08:20:41;;;;;;;9.57;4.38;;;;;;;20.81;62.84;97114.88;5009501;28;20543;-62
2021/07/16 08:23:06;;;;;;;9.27;4.20;;;;;;;20.56;64.66;97114.34;5022380;28;20033;-61
2021/07/16 08:25:34;;;;;;;9.35;4.47;;;;;;;20.85;61.97;97113.44;5028013;28;20481;-63
2021/07/16 08:28:01;;;;;;;9.52;4.45;;;;;;;20.83;62.79;97110.06;5028388;28;20030;-63
2021/07/16 08:30:26;;;;;;;9.88;4.05;;;;;;;21.21;62.57;97112.53;5012595;28;20022;-62
2021/07/16 08:32:51;;;;;;;8.25;4.20;;;;;;;20.78;63.02;97106.22;4990274;28;20065;-63
2021/07/16 08:35:17;;;;;;;10.82;4.20;;;;;;;20.73;63.32;97106.81;5007507;28;20022;-62
2021/07/16 08:37:42;;;;;;;9.65;4.50;;;;;;;20.50;63.66;97118.69;5007877;28;20428;-62
2021/07/16 08:40:09;;;;;;;8.75;4.10;;;;;;;20.61;64.81;97116.53;5006057;28;20022;-62
2021/07/16 08:42:35;;;;;;;10.13;4.60;;;;;;;20.62;64.41;97113.59;5004633;28;20095;-62
2021/07/16 08:45:07;;;;;;;9.65;4.55;;;;;;;21.06;62.73;97109.88;5007419;28;20524;-63
2021/07/16 08:47:33;;;;;;;8.60;4.40;;;;;;;20.82;63.38;97107.53;5024311;28;20087;-61
2021/07/16 08:50:01;;;;;;;10.05;4.60;;;;;;;21.10;62.65;97107.59;5015047;28;20040;-62
2021/07/16 08:52:28;;;;;;;6.80;4.20;;;;;;;21.34;62.65;97109.06;5006895;28;20068;-64
2021/07/16 08:54:55;;;;;;;14.18;4.43;;;;;;;21.79;61.20;97107.94;5004414;28;20026;-63
2021/07/16 08:57:23;;;;;;;10.50;4.20;;;;;;;22.05;60.42;97107.28;5005843;28;20133;-63
2021/07/16 08:59:49;;;;;;;9.57;4.70;;;;;;;21.66;60.81;97108.69;5004874;28;20041;-63
2021/07/16 09:02:14;;;;;;;10.50;4.60;;;;;;;21.52;60.68;97114.03;5005891;28;20069;-63
2021/07/16 09:04:41;;;;;;;11.45;4.45;;;;;;;21.61;59.96;97109.31;5024678;28;20604;-63
2021/07/16 09:07:06;;;;;;;8.25;4.53;;;;;;;21.65;61.24;97117.97;5025417;28;20075;-64
2021/07/16 09:09:36;;;;;;;9.63;4.90;;;;;;;21.44;61.11;97111.44;5013837;28;20033;-64
2021/07/16 09:12:10;;;;;;;9.30;4.55;;;;;;;21.23;61.75;97115.06;5006155;28;20017;-63
2021/07/16 09:14:35;;;;;;;10.32;4.80;;;;;;;21.20;61.60;97110.00;5004378;28;20053;-64
2021/07/16 09:17:05;;;;;;;8.95;4.68;;;;;;;21.39;61.25;97114.78;5005376;28;20536;-63
2021/07/16 09:19:38;;;;;;;10.93;4.43;;;;;;;21.62;60.79;97112.88;5004474;28;20504;-64
2021/07/16 09:22:19;;;;;;;8.13;4.20;;;;;;;22.23;58.76;97112.19;5003475;28;20482;-64
2021/07/16 09:24:50;;;;;;;8.23;4.57;;;;;;;22.52;57.72;97113.00;5004201;28;20033;-63
2021/07/16 09:27:36;;;;;;;8.45;4.38;;;;;;;22.74;57.36;97105.47;5036969;28;20107;-63
2021/07/16 09:30:21;;;;;;;11.98;4.63;;;;;;;22.40;58.26;97116.31;5035003;28;20049;-63
2021/07/16 09:32:52;;;;;;;9.20;3.95;;;;;;;22.49;60.00;97102.41;5004507;28;20022;-63
2021/07/16 09:35:24;;;;;;;10.65;4.03;;;;;;;22.09;60.42;97111.28;4987480;28;20044;-64
2021/07/16 09:37:55;;;;;;;13.38;4.88;;;;;;;22.08;58.52;97102.22;5006659;28;20046;-64
2021/07/16 09:40:32;;;;;;;;;;;;;;;21.99;59.58;97111.63;5006077;28;20018;-64
2021/07/16 09:43:02;;;;;;;12.32;4.22;;;;;;;21.85;60.31;97105.25;5002186;28;19920;-64
2021/07/16 09:45:27;;;;;;;34.95;5.35;;;;;;;22.24;59.77;97103.75;5005308;28;20105;-64
2021/07/16 09:47:53;;;;;;;15.13;4.55;;;;;;;22.64;57.87;97113.25;5004562;28;20109;-65
2021/07/16 09:50:23;;;;;;;10.20;4.35;;;;;;;22.55;57.70;97107.97;5003547;28;20482;-64
2021/07/16 09:53:12;;;;;;;9.25;4.10;;;;;;;22.39;58.52;97108.28;5003010;28;20390;-64
2021/07/16 09:55:37;;;;;;;11.93;3.95;;;;;;;22.63;57.53;97104.16;5003570;28;20041;-64
2021/07/16 09:58:03;;;;;;;7.85;4.10;;;;;;;22.64;57.83;97103.13;5004029;28;20014;-65
2021/07/16 10:00:28;;;;;;;9.77;4.10;;;;;;;22.77;57.52;97096.84;5003913;28;20041;-64
2021/07/16 10:02:56;;;;;;;11.15;4.78;;;;;;;22.78;57.12;97105.91;5011803;28;20379;-65
2021/07/16 10:05:22;;;;;;;9.55;4.38;;;;;;;22.80;56.58;97109.28;5039716;28;20030;-64
2021/07/16 10:07:48;;;;;;;8.90;4.30;;;;;;;22.64;56.60;97103.13;5010459;28;20021;-64
2021/07/16 10:10:18;;;;;;;9.40;4.35;;;;;;;22.59;57.03;97102.06;5010407;28;20374;-64
2021/07/16 10:12:45;;;;;;;9.32;4.80;;;;;;;23.06;55.83;97095.63;5000036;28;20041;-64
2021/07/16 10:15:16;;;;;;;8.13;3.50;;;;;;;23.49;55.50;97101.78;5013528;28;20071;-62
2021/07/16 10:17:41;;;;;;;7.53;4.10;;;;;;;23.58;54.39;97100.50;5014460;28;20092;-63
2021/07/16 10:20:18;;;;;;;9.27;4.50;;;;;;;23.08;54.54;97092.66;5014134;28;20026;-64
2021/07/16 10:22:45;;;;;;;26.00;7.35;;;;;;;23.26;55.05;97091.22;5016144;28;20801;-64
2021/07/16 10:25:16;;;;;;;42.97;8.60;;;;;;;23.65;54.58;97098.63;5014489;28;20030;-63
2021/07/16 10:27:43;;;;;;;237.23;55.85;;;;;;;23.30;54.73;97090.59;5014632;28;20033;-63
2021/07/16 10:30:10;;;;;;;122.22;26.25;;;;;;;23.24;54.99;97089.53;5047638;28;20030;-64
2021/07/16 10:32:45;;;;;;;31.90;9.35;;;;;;;23.19;54.76;97096.72;5015898;28;20041;-64
2021/07/16 10:35:22;;;;;;;67.88;17.90;;;;;;;23.28;55.75;97102.84;5015380;28;20371;-63
2021/07/16 10:37:59;;;;;;;85.93;23.90;;;;;;;23.43;55.24;97091.66;5015352;28;20030;-63
2021/07/16 10:40:40;;;;;;;97.75;26.38;;;;;;;23.49;54.73;97093.53;5046916;28;20033;-63
2021/07/16 10:43:06;;;;;;;121.03;31.58;;;;;;;23.57;54.97;97093.31;5046241;28;20445;-63
2021/07/16 10:45:39;;;;;;;69.15;18.38;;;;;;;23.65;55.28;97097.75;5014626;28;20026;-63
2021/07/16 10:48:16;;;;;;;26.58;7.22;;;;;;;23.57;56.77;97098.81;5013171;28;20026;-63
2021/07/16 10:50:42;;;;;;;14.63;5.07;;;;;;;23.70;55.64;97104.31;5014256;28;20080;-63
2021/07/16 10:53:14;;;;;;;9.27;4.15;;;;;;;23.65;55.39;97103.25;5014236;28;20018;-63
2021/07/16 10:55:40;;;;;;;9.43;3.92;;;;;;;23.49;54.31;97099.03;5015107;28;20034;-63
2021/07/16 10:58:26;;;;;;;8.88;3.67;;;;;;;23.17;54.79;97094.19;5023833;28;20033;-63
2021/07/16 11:00:52;;;;;;;19.85;6.47;;;;;;;23.55;54.86;97098.19;5014551;28;20037;-63
2021/07/16 11:03:23;;;;;;;8.50;4.32;;;;;;;23.80;54.33;97103.00;5013910;28;20390;-63
2021/07/16 11:05:49;;;;;;;;;;;;;;;23.94;54.83;97099.22;5013950;28;20034;-63
2021/07/16 11:08:32;;;;;;;19.50;6.75;;;;;;;24.38;53.74;97092.09;5046340;28;19921;-64
2021/07/16 11:11:03;;;;;;;21.90;6.97;;;;;;;24.38;51.60;97092.09;5013605;28;20026;-63
2021/07/16 11:13:36;;;;;;;44.10;13.80;;;;;;;24.29;52.21;97095.31;5011261;28;20018;-63
2021/07/16 11:16:24;;;;;;;32.22;10.77;;;;;;;24.20;50.85;97098.31;5013797;28;20573;-64
2021/07/16 11:18:57;;;;;;;8.88;3.30;;;;;;;24.44;48.80;97092.28;5013926;28;20026;-65
2021/07/16 11:21:52;;;;;;;6.72;2.95;;;;;;;24.49;49.79;97092.47;4996995;28;20029;-64
2021/07/16 11:24:34;;;;;;;13.88;4.57;;;;;;;24.49;50.07;97093.34;5013268;28;20038;-64
2021/07/16 11:27:07;;;;;;;8.60;4.03;;;;;;;24.81;49.82;97079.63;5012005;28;20042;-63
2021/07/16 11:29:35;;;;;;;9.45;3.30;;;;;;;25.01;49.12;97082.28;5014057;28;20401;-64
2021/07/16 11:32:06;;;;;;;8.50;3.67;;;;;;;24.95;49.67;97076.81;5014386;28;20040;-63